sensor_id;sensor_type;location;lat;lon;timestamp;P1;durP1;ratioP1;P2;durP2;ratioP2
38224;SDS011;24025;48.138;11.428;2022-08-21T00:01:16;0.95;;;0.75;;
38224;SDS011;24025;48.138;11.428;2022-08-21T00:03:48;3.33;;;0.80;;
38224;SDS011;24025;48.138;11.428;2022-08-21T00:06:19;1.52;;;0.68;;
38224;SDS011;24025;48.138;11.428;2022-08-21T00:08:51;0.57;;;0.57;;
38224;SDS011;24025;48.138;11.428;2022-08-21T00:11:21;0.90;;;0.50;;
38224;SDS011;24025;48.138;11.428;2022-08-21T00:13:52;0.68;;;0.63;;
38224;SDS011;24025;48.138;11.428;2022-08-21T00:16:23;0.70;;;0.70;;
38224;SDS011;24025;48.138;11.428;2022-08-21T00:18:54;0.50;;;0.43;;
38224;SDS011;24025;48.138;11.428;2022-08-21T00:21:24;3.50;;;0.80;;
38224;SDS011;24025;48.138;11.428;2022-08-21T00:23:55;1.95;;;0.85;;
38224;SDS011;24025;48.138;11.428;2022-08-21T00:26:25;0.70;;;0.65;;
38224;SDS011;24025;48.138;11.428;2022-08-21T00:28:56;0.95;;;0.82;;
38224;SDS011;24025;48.138;11.428;2022-08-21T00:31:26;1.08;;;0.60;;
38224;SDS011;24025;48.138;11.428;2022-08-21T00:33:57;2.10;;;0.52;;
38224;SDS011;24025;48.138;11.428;2022-08-21T00:36:27;0.40;;;0.40;;
38224;SDS011;24025;48.138;11.428;2022-08-21T00:38:58;0.55;;;0.55;;
38224;SDS011;24025;48.138;11.428;2022-08-21T00:41:29;0.52;;;0.52;;
38224;SDS011;24025;48.138;11.428;2022-08-21T00:43:59;4.70;;;1.10;;
38224;SDS011;24025;48.138;11.428;2022-08-21T00:46:30;0.60;;;0.60;;
38224;SDS011;24025;48.138;11.428;2022-08-21T00:49:00;1.50;;;0.63;;
38224;SDS011;24025;48.138;11.428;2022-08-21T00:51:45;0.70;;;0.60;;
38224;SDS011;24025;48.138;11.428;2022-08-21T00:54:19;0.80;;;0.65;;
38224;SDS011;24025;48.138;11.428;2022-08-21T00:57:03;1.85;;;0.55;;
38224;SDS011;24025;48.138;11.428;2022-08-21T00:59:37;3.88;;;0.63;;
38224;SDS011;24025;48.138;11.428;2022-08-21T01:02:10;1.23;;;0.60;;
38224;SDS011;24025;48.138;11.428;2022-08-21T01:04:41;2.10;;;0.70;;
38224;SDS011;24025;48.138;11.428;2022-08-21T01:07:12;1.67;;;0.60;;
38224;SDS011;24025;48.138;11.428;2022-08-21T01:09:43;1.02;;;0.70;;
38224;SDS011;24025;48.138;11.428;2022-08-21T01:12:16;0.60;;;0.50;;
38224;SDS011;24025;48.138;11.428;2022-08-21T01:14:47;0.60;;;0.60;;
38224;SDS011;24025;48.138;11.428;2022-08-21T01:17:19;0.95;;;0.50;;
38224;SDS011;24025;48.138;11.428;2022-08-21T01:19:51;1.40;;;0.60;;
38224;SDS011;24025;48.138;11.428;2022-08-21T01:22:21;0.77;;;0.60;;
38224;SDS011;24025;48.138;11.428;2022-08-21T01:24:52;2.80;;;0.60;;
38224;SDS011;24025;48.138;11.428;2022-08-21T01:27:23;1.85;;;0.70;;
38224;SDS011;24025;48.138;11.428;2022-08-21T01:29:58;1.77;;;0.47;;
38224;SDS011;24025;48.138;11.428;2022-08-21T01:32:37;0.60;;;0.60;;
38224;SDS011;24025;48.138;11.428;2022-08-21T01:35:09;4.23;;;0.60;;
38224;SDS011;24025;48.138;11.428;2022-08-21T01:37:41;1.77;;;0.68;;
38224;SDS011;24025;48.138;11.428;2022-08-21T01:40:12;0.50;;;0.50;;
38224;SDS011;24025;48.138;11.428;2022-08-21T01:42:43;2.53;;;0.30;;
38224;SDS011;24025;48.138;11.428;2022-08-21T01:45:15;0.63;;;0.50;;
38224;SDS011;24025;48.138;11.428;2022-08-21T01:47:46;3.30;;;2.15;;
38224;SDS011;24025;48.138;11.428;2022-08-21T01:50:17;0.93;;;0.60;;
38224;SDS011;24025;48.138;11.428;2022-08-21T01:52:50;3.55;;;0.52;;
38224;SDS011;24025;48.138;11.428;2022-08-21T01:55:21;1.60;;;0.70;;
38224;SDS011;24025;48.138;11.428;2022-08-21T01:57:52;0.60;;;0.40;;
38224;SDS011;24025;48.138;11.428;2022-08-21T02:00:22;1.50;;;0.60;;
38224;SDS011;24025;48.138;11.428;2022-08-21T02:02:53;2.38;;;0.60;;
38224;SDS011;24025;48.138;11.428;2022-08-21T02:05:23;1.88;;;0.50;;
38224;SDS011;24025;48.138;11.428;2022-08-21T02:07:54;1.25;;;0.60;;
38224;SDS011;24025;48.138;11.428;2022-08-21T02:10:27;0.50;;;0.43;;
38224;SDS011;24025;48.138;11.428;2022-08-21T02:13:00;2.53;;;0.50;;
38224;SDS011;24025;48.138;11.428;2022-08-21T02:15:31;0.95;;;0.60;;
38224;SDS011;24025;48.138;11.428;2022-08-21T02:18:01;1.75;;;0.60;;
38224;SDS011;24025;48.138;11.428;2022-08-21T02:20:36;0.50;;;0.50;;
38224;SDS011;24025;48.138;11.428;2022-08-21T02:23:09;2.95;;;0.50;;
38224;SDS011;24025;48.138;11.428;2022-08-21T02:25:41;3.72;;;0.50;;
38224;SDS011;24025;48.138;11.428;2022-08-21T02:28:12;0.40;;;0.40;;
38224;SDS011;24025;48.138;11.428;2022-08-21T02:30:45;0.73;;;0.50;;
38224;SDS011;24025;48.138;11.428;2022-08-21T02:33:17;0.70;;;0.50;;
38224;SDS011;24025;48.138;11.428;2022-08-21T02:35:48;5.68;;;0.60;;
38224;SDS011;24025;48.138;11.428;2022-08-21T02:38:21;0.93;;;0.50;;
38224;SDS011;24025;48.138;11.428;2022-08-21T02:40:55;0.68;;;0.43;;
38224;SDS011;24025;48.138;11.428;2022-08-21T02:43:27;1.50;;;0.70;;
38224;SDS011;24025;48.138;11.428;2022-08-21T02:45:58;4.32;;;0.70;;
38224;SDS011;24025;48.138;11.428;2022-08-21T02:48:29;0.52;;;0.30;;
38224;SDS011;24025;48.138;11.428;2022-08-21T02:53:37;1.38;;;0.68;;
38224;SDS011;24025;48.138;11.428;2022-08-21T02:56:10;0.95;;;0.57;;
38224;SDS011;24025;48.138;11.428;2022-08-21T02:58:43;0.85;;;0.40;;
38224;SDS011;24025;48.138;11.428;2022-08-21T03:01:17;0.60;;;0.60;;
38224;SDS011;24025;48.138;11.428;2022-08-21T03:03:48;2.08;;;0.80;;
38224;SDS011;24025;48.138;11.428;2022-08-21T03:06:21;1.25;;;0.50;;
38224;SDS011;24025;48.138;11.428;2022-08-21T03:08:52;1.17;;;0.80;;
38224;SDS011;24025;48.138;11.428;2022-08-21T03:11:23;0.50;;;0.50;;
38224;SDS011;24025;48.138;11.428;2022-08-21T03:13:53;0.85;;;0.68;;
38224;SDS011;24025;48.138;11.428;2022-08-21T03:16:23;1.02;;;0.60;;
38224;SDS011;24025;48.138;11.428;2022-08-21T03:18:54;1.88;;;0.47;;
38224;SDS011;24025;48.138;11.428;2022-08-21T03:21:24;0.88;;;0.63;;
38224;SDS011;24025;48.138;11.428;2022-08-21T03:23:55;0.68;;;0.50;;
38224;SDS011;24025;48.138;11.428;2022-08-21T03:26:25;2.53;;;0.60;;
38224;SDS011;24025;48.138;11.428;2022-08-21T03:28:56;0.63;;;0.55;;
38224;SDS011;24025;48.138;11.428;2022-08-21T03:31:27;2.70;;;0.63;;
38224;SDS011;24025;48.138;11.428;2022-08-21T03:34:00;0.73;;;0.50;;
38224;SDS011;24025;48.138;11.428;2022-08-21T03:36:31;0.95;;;0.50;;
38224;SDS011;24025;48.138;11.428;2022-08-21T03:39:02;2.20;;;0.65;;
38224;SDS011;24025;48.138;11.428;2022-08-21T03:41:32;3.30;;;0.68;;
38224;SDS011;24025;48.138;11.428;2022-08-21T03:44:03;2.22;;;0.68;;
38224;SDS011;24025;48.138;11.428;2022-08-21T03:46:33;0.93;;;0.50;;
38224;SDS011;24025;48.138;11.428;2022-08-21T03:49:04;0.80;;;0.60;;
38224;SDS011;24025;48.138;11.428;2022-08-21T03:51:34;1.65;;;0.80;;
38224;SDS011;24025;48.138;11.428;2022-08-21T03:54:05;0.95;;;0.45;;
38224;SDS011;24025;48.138;11.428;2022-08-21T03:56:35;0.75;;;0.60;;
38224;SDS011;24025;48.138;11.428;2022-08-21T03:59:06;1.67;;;0.57;;
38224;SDS011;24025;48.138;11.428;2022-08-21T04:01:36;0.95;;;0.68;;
38224;SDS011;24025;48.138;11.428;2022-08-21T04:04:08;2.65;;;0.55;;
38224;SDS011;24025;48.138;11.428;2022-08-21T04:06:38;2.83;;;0.85;;
38224;SDS011;24025;48.138;11.428;2022-08-21T04:09:08;3.75;;;0.70;;
38224;SDS011;24025;48.138;11.428;2022-08-21T04:11:39;0.80;;;0.50;;
38224;SDS011;24025;48.138;11.428;2022-08-21T04:14:09;1.80;;;0.40;;
38224;SDS011;24025;48.138;11.428;2022-08-21T04:16:40;2.25;;;0.75;;
38224;SDS011;24025;48.138;11.428;2022-08-21T04:19:12;0.77;;;0.60;;
38224;SDS011;24025;48.138;11.428;2022-08-21T04:21:43;2.87;;;0.50;;
38224;SDS011;24025;48.138;11.428;2022-08-21T04:24:13;1.38;;;0.52;;
38224;SDS011;24025;48.138;11.428;2022-08-21T04:26:44;2.03;;;0.60;;
38224;SDS011;24025;48.138;11.428;2022-08-21T04:29:14;0.52;;;0.52;;
38224;SDS011;24025;48.138;11.428;2022-08-21T04:31:44;0.70;;;0.60;;
38224;SDS011;24025;48.138;11.428;2022-08-21T04:34:15;0.70;;;0.60;;
38224;SDS011;24025;48.138;11.428;2022-08-21T04:36:45;0.60;;;0.55;;
38224;SDS011;24025;48.138;11.428;2022-08-21T04:39:16;0.80;;;0.60;;
38224;SDS011;24025;48.138;11.428;2022-08-21T04:41:46;0.95;;;0.60;;
38224;SDS011;24025;48.138;11.428;2022-08-21T04:44:17;1.55;;;0.65;;
38224;SDS011;24025;48.138;11.428;2022-08-21T04:46:48;0.60;;;0.38;;
38224;SDS011;24025;48.138;11.428;2022-08-21T04:49:18;1.67;;;0.90;;
38224;SDS011;24025;48.138;11.428;2022-08-21T04:51:48;1.15;;;0.55;;
38224;SDS011;24025;48.138;11.428;2022-08-21T04:54:20;1.13;;;0.60;;
38224;SDS011;24025;48.138;11.428;2022-08-21T04:57:10;0.95;;;0.63;;
38224;SDS011;24025;48.138;11.428;2022-08-21T04:59:46;0.52;;;0.50;;
38224;SDS011;24025;48.138;11.428;2022-08-21T05:02:19;1.38;;;0.70;;
38224;SDS011;24025;48.138;11.428;2022-08-21T05:04:52;0.57;;;0.55;;
38224;SDS011;24025;48.138;11.428;2022-08-21T05:07:25;0.85;;;0.52;;
38224;SDS011;24025;48.138;11.428;2022-08-21T05:09:59;1.23;;;0.50;;
38224;SDS011;24025;48.138;11.428;2022-08-21T05:12:30;1.10;;;0.60;;
38224;SDS011;24025;48.138;11.428;2022-08-21T05:15:02;1.33;;;0.65;;
38224;SDS011;24025;48.138;11.428;2022-08-21T05:17:33;3.42;;;0.80;;
38224;SDS011;24025;48.138;11.428;2022-08-21T05:20:03;2.53;;;0.60;;
38224;SDS011;24025;48.138;11.428;2022-08-21T05:22:37;1.48;;;0.50;;
38224;SDS011;24025;48.138;11.428;2022-08-21T05:25:08;5.00;;;0.55;;
38224;SDS011;24025;48.138;11.428;2022-08-21T05:27:40;0.70;;;0.60;;
38224;SDS011;24025;48.138;11.428;2022-08-21T05:30:10;0.70;;;0.55;;
38224;SDS011;24025;48.138;11.428;2022-08-21T05:32:41;0.98;;;0.65;;
38224;SDS011;24025;48.138;11.428;2022-08-21T05:35:11;1.13;;;0.55;;
38224;SDS011;24025;48.138;11.428;2022-08-21T05:37:42;1.15;;;0.38;;
38224;SDS011;24025;48.138;11.428;2022-08-21T05:40:12;1.55;;;0.68;;
38224;SDS011;24025;48.138;11.428;2022-08-21T05:42:44;0.88;;;0.73;;
38224;SDS011;24025;48.138;11.428;2022-08-21T05:45:14;1.63;;;0.65;;
38224;SDS011;24025;48.138;11.428;2022-08-21T05:47:45;3.25;;;0.63;;
38224;SDS011;24025;48.138;11.428;2022-08-21T05:50:15;2.17;;;0.77;;
38224;SDS011;24025;48.138;11.428;2022-08-21T05:52:45;0.65;;;0.65;;
38224;SDS011;24025;48.138;11.428;2022-08-21T05:55:16;0.68;;;0.60;;
38224;SDS011;24025;48.138;11.428;2022-08-21T05:57:46;4.43;;;0.85;;
38224;SDS011;24025;48.138;11.428;2022-08-21T06:00:17;0.90;;;0.60;;
38224;SDS011;24025;48.138;11.428;2022-08-21T06:02:47;6.28;;;0.70;;
38224;SDS011;24025;48.138;11.428;2022-08-21T06:05:18;1.38;;;0.70;;
38224;SDS011;24025;48.138;11.428;2022-08-21T06:07:49;1.08;;;0.50;;
38224;SDS011;24025;48.138;11.428;2022-08-21T06:10:19;1.60;;;0.65;;
38224;SDS011;24025;48.138;11.428;2022-08-21T06:12:52;1.00;;;0.80;;
38224;SDS011;24025;48.138;11.428;2022-08-21T06:15:24;1.00;;;0.55;;
38224;SDS011;24025;48.138;11.428;2022-08-21T06:17:55;0.95;;;0.68;;
38224;SDS011;24025;48.138;11.428;2022-08-21T06:20:26;1.70;;;0.65;;
38224;SDS011;24025;48.138;11.428;2022-08-21T06:22:56;2.35;;;0.90;;
38224;SDS011;24025;48.138;11.428;2022-08-21T06:25:27;2.15;;;0.70;;
38224;SDS011;24025;48.138;11.428;2022-08-21T06:28:01;2.00;;;0.70;;
38224;SDS011;24025;48.138;11.428;2022-08-21T06:30:34;1.02;;;0.77;;
38224;SDS011;24025;48.138;11.428;2022-08-21T06:33:06;1.10;;;0.95;;
38224;SDS011;24025;48.138;11.428;2022-08-21T06:35:37;2.78;;;0.80;;
38224;SDS011;24025;48.138;11.428;2022-08-21T06:38:07;3.60;;;0.85;;
38224;SDS011;24025;48.138;11.428;2022-08-21T06:40:38;3.10;;;0.70;;
38224;SDS011;24025;48.138;11.428;2022-08-21T06:43:10;2.88;;;0.63;;
38224;SDS011;24025;48.138;11.428;2022-08-21T06:45:43;3.55;;;0.80;;
38224;SDS011;24025;48.138;11.428;2022-08-21T06:48:14;2.75;;;1.02;;
38224;SDS011;24025;48.138;11.428;2022-08-21T06:50:44;4.38;;;1.05;;
38224;SDS011;24025;48.138;11.428;2022-08-21T06:53:16;1.63;;;0.93;;
38224;SDS011;24025;48.138;11.428;2022-08-21T06:55:48;2.33;;;0.95;;
38224;SDS011;24025;48.138;11.428;2022-08-21T06:58:19;7.28;;;1.02;;
38224;SDS011;24025;48.138;11.428;2022-08-21T07:00:50;3.20;;;1.00;;
38224;SDS011;24025;48.138;11.428;2022-08-21T07:03:25;2.45;;;0.85;;
38224;SDS011;24025;48.138;11.428;2022-08-21T07:05:59;1.30;;;0.82;;
38224;SDS011;24025;48.138;11.428;2022-08-21T07:08:30;2.25;;;1.15;;
38224;SDS011;24025;48.138;11.428;2022-08-21T07:11:01;6.13;;;1.35;;
38224;SDS011;24025;48.138;11.428;2022-08-21T07:13:34;5.22;;;1.52;;
38224;SDS011;24025;48.138;11.428;2022-08-21T07:16:05;2.13;;;1.10;;
38224;SDS011;24025;48.138;11.428;2022-08-21T07:18:36;3.90;;;0.98;;
38224;SDS011;24025;48.138;11.428;2022-08-21T07:21:07;2.15;;;1.27;;
38224;SDS011;24025;48.138;11.428;2022-08-21T07:23:39;2.22;;;1.33;;
38224;SDS011;24025;48.138;11.428;2022-08-21T07:26:13;2.83;;;1.25;;
38224;SDS011;24025;48.138;11.428;2022-08-21T07:31:16;1.77;;;1.10;;
38224;SDS011;24025;48.138;11.428;2022-08-21T07:33:48;7.53;;;1.45;;
38224;SDS011;24025;48.138;11.428;2022-08-21T07:36:18;2.08;;;1.30;;
38224;SDS011;24025;48.138;11.428;2022-08-21T07:38:50;2.05;;;1.80;;
38224;SDS011;24025;48.138;11.428;2022-08-21T07:41:22;2.95;;;1.50;;
38224;SDS011;24025;48.138;11.428;2022-08-21T07:43:55;2.30;;;1.65;;
38224;SDS011;24025;48.138;11.428;2022-08-21T07:46:27;5.35;;;2.30;;
38224;SDS011;24025;48.138;11.428;2022-08-21T07:48:57;3.05;;;1.58;;
38224;SDS011;24025;48.138;11.428;2022-08-21T07:51:28;2.17;;;1.38;;
38224;SDS011;24025;48.138;11.428;2022-08-21T07:53:59;13.15;;;4.28;;
38224;SDS011;24025;48.138;11.428;2022-08-21T07:56:31;3.70;;;1.88;;
38224;SDS011;24025;48.138;11.428;2022-08-21T07:59:02;2.60;;;1.38;;
38224;SDS011;24025;48.138;11.428;2022-08-21T08:01:32;2.53;;;1.60;;
38224;SDS011;24025;48.138;11.428;2022-08-21T08:04:03;9.82;;;3.35;;
38224;SDS011;24025;48.138;11.428;2022-08-21T08:06:33;6.55;;;1.95;;
38224;SDS011;24025;48.138;11.428;2022-08-21T08:09:04;2.78;;;2.10;;
38224;SDS011;24025;48.138;11.428;2022-08-21T08:11:35;3.03;;;2.00;;
38224;SDS011;24025;48.138;11.428;2022-08-21T08:14:06;4.05;;;2.25;;
38224;SDS011;24025;48.138;11.428;2022-08-21T08:16:37;3.33;;;1.45;;
38224;SDS011;24025;48.138;11.428;2022-08-21T08:19:07;2.70;;;1.90;;
38224;SDS011;24025;48.138;11.428;2022-08-21T08:21:38;3.15;;;2.13;;
38224;SDS011;24025;48.138;11.428;2022-08-21T08:24:08;2.83;;;2.20;;
38224;SDS011;24025;48.138;11.428;2022-08-21T08:26:38;6.65;;;1.95;;
38224;SDS011;24025;48.138;11.428;2022-08-21T08:29:09;3.42;;;2.25;;
38224;SDS011;24025;48.138;11.428;2022-08-21T08:31:39;2.22;;;1.83;;
38224;SDS011;24025;48.138;11.428;2022-08-21T08:34:10;5.82;;;1.67;;
38224;SDS011;24025;48.138;11.428;2022-08-21T08:36:40;5.88;;;2.05;;
38224;SDS011;24025;48.138;11.428;2022-08-21T08:39:11;3.80;;;2.10;;
38224;SDS011;24025;48.138;11.428;2022-08-21T08:41:41;2.33;;;2.10;;
38224;SDS011;24025;48.138;11.428;2022-08-21T08:44:14;8.25;;;2.42;;
38224;SDS011;24025;48.138;11.428;2022-08-21T08:46:46;4.28;;;3.28;;
38224;SDS011;24025;48.138;11.428;2022-08-21T08:49:20;2.83;;;2.28;;
38224;SDS011;24025;48.138;11.428;2022-08-21T08:52:06;3.63;;;2.70;;
38224;SDS011;24025;48.138;11.428;2022-08-21T08:54:47;2.92;;;2.63;;
38224;SDS011;24025;48.138;11.428;2022-08-21T08:57:27;3.35;;;2.55;;
38224;SDS011;24025;48.138;11.428;2022-08-21T08:59:59;5.40;;;2.65;;
38224;SDS011;24025;48.138;11.428;2022-08-21T09:02:32;4.30;;;2.35;;
38224;SDS011;24025;48.138;11.428;2022-08-21T09:05:03;6.35;;;2.75;;
38224;SDS011;24025;48.138;11.428;2022-08-21T09:10:30;2.38;;;2.17;;
38224;SDS011;24025;48.138;11.428;2022-08-21T09:13:16;3.92;;;2.28;;
38224;SDS011;24025;48.138;11.428;2022-08-21T09:15:56;6.30;;;2.05;;
38224;SDS011;24025;48.138;11.428;2022-08-21T09:27:12;4.05;;;2.97;;
38224;SDS011;24025;48.138;11.428;2022-08-21T09:29:46;3.47;;;2.40;;
38224;SDS011;24025;48.138;11.428;2022-08-21T09:32:19;2.78;;;1.95;;
38224;SDS011;24025;48.138;11.428;2022-08-21T09:34:56;2.22;;;1.83;;
38224;SDS011;24025;48.138;11.428;2022-08-21T09:38:07;6.18;;;2.50;;
38224;SDS011;24025;48.138;11.428;2022-08-21T09:40:42;3.72;;;2.13;;
38224;SDS011;24025;48.138;11.428;2022-08-21T09:43:20;3.50;;;2.30;;
38224;SDS011;24025;48.138;11.428;2022-08-21T09:48:46;3.72;;;1.92;;
38224;SDS011;24025;48.138;11.428;2022-08-21T09:51:21;3.42;;;2.00;;
38224;SDS011;24025;48.138;11.428;2022-08-21T09:56:40;3.45;;;1.45;;
38224;SDS011;24025;48.138;11.428;2022-08-21T09:59:42;2.80;;;1.80;;
38224;SDS011;24025;48.138;11.428;2022-08-21T10:02:28;4.38;;;1.50;;
38224;SDS011;24025;48.138;11.428;2022-08-21T10:07:38;5.20;;;1.95;;
38224;SDS011;24025;48.138;11.428;2022-08-21T10:10:14;2.33;;;1.48;;
38224;SDS011;24025;48.138;11.428;2022-08-21T10:26:17;3.33;;;1.92;;
38224;SDS011;24025;48.138;11.428;2022-08-21T10:31:51;2.95;;;1.30;;
38224;SDS011;24025;48.138;11.428;2022-08-21T10:37:56;3.90;;;1.67;;
38224;SDS011;24025;48.138;11.428;2022-08-21T10:41:04;3.05;;;2.10;;
38224;SDS011;24025;48.138;11.428;2022-08-21T10:43:54;2.83;;;1.67;;
38224;SDS011;24025;48.138;11.428;2022-08-21T10:49:35;4.30;;;2.13;;
38224;SDS011;24025;48.138;11.428;2022-08-21T10:52:19;5.20;;;1.70;;
38224;SDS011;24025;48.138;11.428;2022-08-21T10:58:01;3.42;;;1.63;;
38224;SDS011;24025;48.138;11.428;2022-08-21T11:00:39;1.75;;;1.48;;
38224;SDS011;24025;48.138;11.428;2022-08-21T11:03:16;3.47;;;1.52;;
38224;SDS011;24025;48.138;11.428;2022-08-21T11:05:54;5.88;;;1.63;;
38224;SDS011;24025;48.138;11.428;2022-08-21T11:08:31;1.58;;;1.48;;
38224;SDS011;24025;48.138;11.428;2022-08-21T11:11:41;2.65;;;1.70;;
38224;SDS011;24025;48.138;11.428;2022-08-21T11:14:18;1.52;;;1.30;;
38224;SDS011;24025;48.138;11.428;2022-08-21T11:17:11;4.75;;;1.60;;
38224;SDS011;24025;48.138;11.428;2022-08-21T11:19:54;2.45;;;1.70;;
38224;SDS011;24025;48.138;11.428;2022-08-21T11:25:19;1.60;;;1.45;;
38224;SDS011;24025;48.138;11.428;2022-08-21T11:27:58;2.13;;;1.70;;
38224;SDS011;24025;48.138;11.428;2022-08-21T11:30:42;2.25;;;1.80;;
38224;SDS011;24025;48.138;11.428;2022-08-21T11:33:31;2.30;;;1.52;;
38224;SDS011;24025;48.138;11.428;2022-08-21T11:41:59;3.63;;;1.60;;
38224;SDS011;24025;48.138;11.428;2022-08-21T11:53:05;2.45;;;1.48;;
38224;SDS011;24025;48.138;11.428;2022-08-21T11:55:45;4.10;;;1.35;;
38224;SDS011;24025;48.138;11.428;2022-08-21T12:01:37;3.05;;;1.20;;
38224;SDS011;24025;48.138;11.428;2022-08-21T12:06:50;3.53;;;1.25;;
38224;SDS011;24025;48.138;11.428;2022-08-21T12:14:41;4.03;;;1.42;;
38224;SDS011;24025;48.138;11.428;2022-08-21T12:17:18;3.58;;;1.73;;
38224;SDS011;24025;48.138;11.428;2022-08-21T12:20:27;8.40;;;1.60;;
38224;SDS011;24025;48.138;11.428;2022-08-21T12:28:20;2.15;;;1.35;;
38224;SDS011;24025;48.138;11.428;2022-08-21T12:30:53;4.47;;;1.30;;
38224;SDS011;24025;48.138;11.428;2022-08-21T12:36:12;1.40;;;1.30;;
38224;SDS011;24025;48.138;11.428;2022-08-21T12:39:05;1.75;;;1.20;;
38224;SDS011;24025;48.138;11.428;2022-08-21T12:41:49;3.80;;;2.17;;
38224;SDS011;24025;48.138;11.428;2022-08-21T12:44:28;2.63;;;1.60;;
38224;SDS011;24025;48.138;11.428;2022-08-21T12:49:56;2.20;;;1.25;;
38224;SDS011;24025;48.138;11.428;2022-08-21T12:52:34;2.10;;;1.15;;
38224;SDS011;24025;48.138;11.428;2022-08-21T12:55:11;1.77;;;1.25;;
38224;SDS011;24025;48.138;11.428;2022-08-21T12:57:42;3.53;;;1.33;;
38224;SDS011;24025;48.138;11.428;2022-08-21T13:00:13;1.40;;;1.23;;
38224;SDS011;24025;48.138;11.428;2022-08-21T13:02:48;2.10;;;1.40;;
38224;SDS011;24025;48.138;11.428;2022-08-21T13:08:05;1.65;;;0.93;;
38224;SDS011;24025;48.138;11.428;2022-08-21T13:10:39;5.53;;;1.20;;
38224;SDS011;24025;48.138;11.428;2022-08-21T13:13:12;2.97;;;1.00;;
38224;SDS011;24025;48.138;11.428;2022-08-21T13:15:49;1.63;;;1.00;;
38224;SDS011;24025;48.138;11.428;2022-08-21T13:18:29;2.30;;;1.50;;
38224;SDS011;24025;48.138;11.428;2022-08-21T13:21:11;3.80;;;1.20;;
38224;SDS011;24025;48.138;11.428;2022-08-21T13:23:43;2.20;;;1.17;;
38224;SDS011;24025;48.138;11.428;2022-08-21T13:26:14;1.20;;;1.00;;
38224;SDS011;24025;48.138;11.428;2022-08-21T13:28:47;3.03;;;0.80;;
38224;SDS011;24025;48.138;11.428;2022-08-21T13:31:22;1.98;;;1.42;;
38224;SDS011;24025;48.138;11.428;2022-08-21T13:33:56;1.58;;;1.30;;
38224;SDS011;24025;48.138;11.428;2022-08-21T13:36:29;4.17;;;1.40;;
38224;SDS011;24025;48.138;11.428;2022-08-21T13:39:04;3.08;;;1.20;;
38224;SDS011;24025;48.138;11.428;2022-08-21T13:41:41;3.67;;;1.45;;
38224;SDS011;24025;48.138;11.428;2022-08-21T13:44:21;3.30;;;2.05;;
38224;SDS011;24025;48.138;11.428;2022-08-21T13:46:56;1.67;;;1.33;;
38224;SDS011;24025;48.138;11.428;2022-08-21T13:49:29;2.95;;;1.33;;
38224;SDS011;24025;48.138;11.428;2022-08-21T13:52:02;1.30;;;1.20;;
38224;SDS011;24025;48.138;11.428;2022-08-21T13:54:37;3.08;;;1.10;;
38224;SDS011;24025;48.138;11.428;2022-08-21T13:57:18;3.05;;;1.48;;
38224;SDS011;24025;48.138;11.428;2022-08-21T14:00:09;3.28;;;1.95;;
38224;SDS011;24025;48.138;11.428;2022-08-21T14:02:49;3.83;;;1.40;;
38224;SDS011;24025;48.138;11.428;2022-08-21T14:05:26;2.35;;;1.63;;
38224;SDS011;24025;48.138;11.428;2022-08-21T14:08:10;8.77;;;1.60;;
38224;SDS011;24025;48.138;11.428;2022-08-21T14:10:49;3.80;;;1.77;;
38224;SDS011;24025;48.138;11.428;2022-08-21T14:16:26;2.15;;;1.42;;
38224;SDS011;24025;48.138;11.428;2022-08-21T14:19:20;1.40;;;1.13;;
38224;SDS011;24025;48.138;11.428;2022-08-21T14:21:54;3.90;;;1.58;;
38224;SDS011;24025;48.138;11.428;2022-08-21T14:24:26;1.93;;;1.37;;
38224;SDS011;24025;48.138;11.428;2022-08-21T14:27:03;3.45;;;1.27;;
38224;SDS011;24025;48.138;11.428;2022-08-21T14:29:37;1.50;;;1.30;;
38224;SDS011;24025;48.138;11.428;2022-08-21T14:34:44;3.08;;;1.52;;
38224;SDS011;24025;48.138;11.428;2022-08-21T14:37:14;2.30;;;1.43;;
38224;SDS011;24025;48.138;11.428;2022-08-21T14:39:44;2.33;;;1.70;;
38224;SDS011;24025;48.138;11.428;2022-08-21T14:42:15;4.78;;;1.65;;
38224;SDS011;24025;48.138;11.428;2022-08-21T14:44:46;1.98;;;1.40;;
38224;SDS011;24025;48.138;11.428;2022-08-21T14:47:17;5.70;;;1.83;;
38224;SDS011;24025;48.138;11.428;2022-08-21T14:49:47;1.37;;;1.27;;
38224;SDS011;24025;48.138;11.428;2022-08-21T14:52:17;3.30;;;1.50;;
38224;SDS011;24025;48.138;11.428;2022-08-21T14:54:48;1.30;;;1.20;;
38224;SDS011;24025;48.138;11.428;2022-08-21T14:59:48;5.38;;;1.75;;
38224;SDS011;24025;48.138;11.428;2022-08-21T15:04:49;6.67;;;2.27;;
38224;SDS011;24025;48.138;11.428;2022-08-21T15:09:50;7.63;;;1.77;;
38224;SDS011;24025;48.138;11.428;2022-08-21T15:12:20;2.58;;;1.45;;
38224;SDS011;24025;48.138;11.428;2022-08-21T15:14:51;4.15;;;1.30;;
38224;SDS011;24025;48.138;11.428;2022-08-21T15:17:22;2.88;;;1.42;;
38224;SDS011;24025;48.138;11.428;2022-08-21T15:19:53;4.32;;;1.33;;
38224;SDS011;24025;48.138;11.428;2022-08-21T15:22:23;1.95;;;1.60;;
38224;SDS011;24025;48.138;11.428;2022-08-21T15:24:54;1.52;;;1.40;;
38224;SDS011;24025;48.138;11.428;2022-08-21T15:27:24;2.55;;;1.50;;
38224;SDS011;24025;48.138;11.428;2022-08-21T15:29:54;2.88;;;1.77;;
38224;SDS011;24025;48.138;11.428;2022-08-21T15:32:26;7.68;;;1.50;;
38224;SDS011;24025;48.138;11.428;2022-08-21T15:34:59;1.65;;;1.55;;
38224;SDS011;24025;48.138;11.428;2022-08-21T15:37:29;2.10;;;1.58;;
38224;SDS011;24025;48.138;11.428;2022-08-21T15:39:59;2.05;;;1.30;;
38224;SDS011;24025;48.138;11.428;2022-08-21T15:42:30;6.28;;;1.73;;
38224;SDS011;24025;48.138;11.428;2022-08-21T15:45:01;8.20;;;2.05;;
38224;SDS011;24025;48.138;11.428;2022-08-21T15:47:34;1.95;;;1.80;;
38224;SDS011;24025;48.138;11.428;2022-08-21T15:50:07;1.90;;;1.40;;
38224;SDS011;24025;48.138;11.428;2022-08-21T15:52:38;3.42;;;1.63;;
38224;SDS011;24025;48.138;11.428;2022-08-21T15:55:09;2.53;;;1.58;;
38224;SDS011;24025;48.138;11.428;2022-08-21T15:57:45;1.83;;;1.42;;
38224;SDS011;24025;48.138;11.428;2022-08-21T16:00:19;2.58;;;1.90;;
38224;SDS011;24025;48.138;11.428;2022-08-21T16:02:55;1.77;;;1.50;;
38224;SDS011;24025;48.138;11.428;2022-08-21T16:05:27;5.30;;;1.80;;
38224;SDS011;24025;48.138;11.428;2022-08-21T16:07:57;2.88;;;1.70;;
38224;SDS011;24025;48.138;11.428;2022-08-21T16:10:28;3.35;;;1.65;;
38224;SDS011;24025;48.138;11.428;2022-08-21T16:13:01;1.90;;;1.58;;
38224;SDS011;24025;48.138;11.428;2022-08-21T16:15:33;3.22;;;1.95;;
38224;SDS011;24025;48.138;11.428;2022-08-21T16:18:03;2.10;;;1.75;;
38224;SDS011;24025;48.138;11.428;2022-08-21T16:20:34;6.03;;;2.10;;
38224;SDS011;24025;48.138;11.428;2022-08-21T16:23:05;2.15;;;1.77;;
38224;SDS011;24025;48.138;11.428;2022-08-21T16:25:38;2.17;;;1.98;;
38224;SDS011;24025;48.138;11.428;2022-08-21T16:28:13;2.80;;;1.73;;
38224;SDS011;24025;48.138;11.428;2022-08-21T16:30:47;2.38;;;1.60;;
38224;SDS011;24025;48.138;11.428;2022-08-21T16:36:04;2.55;;;1.65;;
38224;SDS011;24025;48.138;11.428;2022-08-21T16:38:36;4.07;;;1.73;;
38224;SDS011;24025;48.138;11.428;2022-08-21T16:41:09;2.63;;;1.52;;
38224;SDS011;24025;48.138;11.428;2022-08-21T16:43:41;2.33;;;1.50;;
38224;SDS011;24025;48.138;11.428;2022-08-21T16:46:13;4.10;;;1.88;;
38224;SDS011;24025;48.138;11.428;2022-08-21T16:48:45;3.22;;;1.73;;
38224;SDS011;24025;48.138;11.428;2022-08-21T16:51:16;3.97;;;1.53;;
38224;SDS011;24025;48.138;11.428;2022-08-21T16:53:46;2.58;;;1.75;;
38224;SDS011;24025;48.138;11.428;2022-08-21T16:56:17;2.33;;;1.60;;
38224;SDS011;24025;48.138;11.428;2022-08-21T16:58:48;6.00;;;1.70;;